createdAt,value
2022-09-20T00:01:09.804Z,9.77
2022-09-20T00:03:39.016Z,9.75
2022-09-20T00:06:09.549Z,9.76
2022-09-20T00:08:38.660Z,9.75
2022-09-20T00:11:08.945Z,9.71
2022-09-20T00:13:37.729Z,9.71
2022-09-20T00:16:08.829Z,9.72
2022-09-20T00:18:37.519Z,9.68
2022-09-20T00:21:06.135Z,9.69
2022-09-20T00:23:35.371Z,9.66
2022-09-20T00:26:05.316Z,9.67
2022-09-20T00:28:33.610Z,9.66
2022-09-20T00:31:01.699Z,9.68
2022-09-20T00:33:44.724Z,9.67
2022-09-20T00:36:12.596Z,9.66
2022-09-20T00:38:40.534Z,9.64
2022-09-20T00:41:08.374Z,9.66
2022-09-20T00:43:38.466Z,9.66
2022-09-20T00:46:10.281Z,9.58
2022-09-20T00:48:39.622Z,9.57
2022-09-20T00:51:12.352Z,9.57
2022-09-20T00:53:43.135Z,9.56
2022-09-20T00:56:16.306Z,9.53
2022-09-20T00:58:50.879Z,9.51
2022-09-20T01:01:19.213Z,9.52
2022-09-20T01:03:49.976Z,9.52
2022-09-20T01:06:18.907Z,9.47
2022-09-20T01:08:51.734Z,9.48
2022-09-20T01:11:19.606Z,9.45
2022-09-20T01:13:47.413Z,9.42
2022-09-20T01:16:17.308Z,9.38
2022-09-20T01:18:47.190Z,9.40
2022-09-20T01:21:18.191Z,9.37
2022-09-20T01:23:53.229Z,9.35
2022-09-20T01:26:45.141Z,9.32
2022-09-20T01:29:26.716Z,9.31
2022-09-20T01:31:56.336Z,9.30
2022-09-20T01:34:32.477Z,9.31
2022-09-20T01:37:07.507Z,9.31
2022-09-20T01:39:45.688Z,9.30
2022-09-20T01:42:15.432Z,9.30
2022-09-20T01:44:59.585Z,9.36
2022-09-20T01:47:36.380Z,9.46
2022-09-20T01:50:13.311Z,9.46
2022-09-20T01:53:05.342Z,9.49
2022-09-20T01:55:59.629Z,9.49
2022-09-20T01:59:24.988Z,9.45
2022-09-20T02:02:18.054Z,9.48
2022-09-20T02:05:06.675Z,9.53
2022-09-20T02:07:58.957Z,9.51
2022-09-20T02:10:42.549Z,9.52
2022-09-20T02:13:16.610Z,9.54
2022-09-20T02:16:05.821Z,9.48
2022-09-20T02:18:56.738Z,9.46
2022-09-20T02:21:31.217Z,9.45
2022-09-20T02:24:10.236Z,9.44
2022-09-20T02:26:46.253Z,9.41
2022-09-20T02:29:27.004Z,9.43
2022-09-20T02:32:08.284Z,9.42
2022-09-20T02:35:04.371Z,9.43
2022-09-20T02:38:09.719Z,9.50
2022-09-20T02:40:55.826Z,9.55
2022-09-20T02:43:31.549Z,9.57
2022-09-20T02:46:06.110Z,9.52
2022-09-20T02:48:40.189Z,9.57
2022-09-20T02:51:21.344Z,9.57
2022-09-20T02:54:00.848Z,9.62
2022-09-20T02:56:35.584Z,9.64
2022-09-20T02:59:10.611Z,9.74
2022-09-20T03:01:48.473Z,9.80
2022-09-20T03:04:26.533Z,9.84
2022-09-20T03:07:03.593Z,9.84
2022-09-20T03:09:39.252Z,9.84
2022-09-20T03:12:20.968Z,9.92
2022-09-20T03:14:58.582Z,9.91
2022-09-20T03:17:36.543Z,9.91
2022-09-20T03:20:21.721Z,9.98
2022-09-20T03:22:59.978Z,9.99
2022-09-20T03:25:52.931Z,10.05
2022-09-20T03:28:38.144Z,9.99
2022-09-20T03:31:20.651Z,10.02
2022-09-20T03:33:57.625Z,10.06
2022-09-20T03:36:41.301Z,10.06
2022-09-20T03:39:31.201Z,10.08
2022-09-20T03:42:08.599Z,10.07
2022-09-20T03:45:15.029Z,10.10
2022-09-20T03:48:06.527Z,10.13
2022-09-20T03:50:57.952Z,10.10
2022-09-20T03:53:47.545Z,10.17
2022-09-20T03:56:58.792Z,10.16
2022-09-20T03:59:44.070Z,10.17
2022-09-20T04:02:29.139Z,10.08
2022-09-20T04:05:00.610Z,10.11
2022-09-20T04:07:39.709Z,10.12
2022-09-20T04:10:25.631Z,10.14
2022-09-20T04:13:18.485Z,10.19
2022-09-20T04:16:06.837Z,10.21
2022-09-20T04:18:39.120Z,10.23
2022-09-20T04:21:15.080Z,10.20
2022-09-20T04:23:51.751Z,10.25
2022-09-20T04:26:26.926Z,10.21
2022-09-20T04:29:03.120Z,10.23
2022-09-20T04:31:38.198Z,10.20
2022-09-20T04:34:14.660Z,10.20
2022-09-20T04:36:58.185Z,10.25
2022-09-20T04:39:40.396Z,10.23
2022-09-20T04:43:05.106Z,10.28
2022-09-20T04:45:57.853Z,10.25
2022-09-20T04:49:15.417Z,10.28
2022-09-20T04:52:10.816Z,10.19
2022-09-20T04:55:04.852Z,10.18
2022-09-20T04:58:06.318Z,10.15
2022-09-20T05:00:53.658Z,10.13
2022-09-20T05:03:39.035Z,10.18
2022-09-20T05:06:39.411Z,10.22
2022-09-20T05:09:25.491Z,10.22
2022-09-20T05:12:11.906Z,10.28
2022-09-20T05:15:08.094Z,10.32
2022-09-20T05:17:54.060Z,10.35
2022-09-20T05:20:44.731Z,10.45
2022-09-20T05:23:40.691Z,10.46
2022-09-20T05:26:13.571Z,10.42
2022-09-20T05:28:53.317Z,10.48
2022-09-20T05:31:30.976Z,10.54
2022-09-20T05:34:09.588Z,10.55
2022-09-20T05:36:49.811Z,10.58
2022-09-20T05:39:30.240Z,10.60
2022-09-20T05:42:01.649Z,10.59
2022-09-20T05:44:42.558Z,10.61
2022-09-20T05:47:19.052Z,10.68
2022-09-20T05:50:00.053Z,10.68
2022-09-20T05:52:43.139Z,10.69
2022-09-20T05:55:31.749Z,10.73
2022-09-20T05:58:23.559Z,10.74
2022-09-20T06:00:59.287Z,10.66
2022-09-20T06:03:37.294Z,10.68
2022-09-20T06:06:14.889Z,10.78
2022-09-20T06:09:22.019Z,10.83
2022-09-20T06:12:04.828Z,10.92
2022-09-20T06:14:41.184Z,10.93
2022-09-20T06:17:22.053Z,10.96
2022-09-20T06:19:53.831Z,11.00
2022-09-20T06:22:28.775Z,10.91
2022-09-20T06:25:04.158Z,10.98
2022-09-20T06:27:37.150Z,11.04
2022-09-20T06:30:09.093Z,10.97
2022-09-20T06:32:53.342Z,11.08
2022-09-20T06:35:22.018Z,11.06
2022-09-20T06:38:14.937Z,11.14
2022-09-20T06:41:04.970Z,11.04
2022-09-20T06:43:32.777Z,11.08
2022-09-20T06:46:00.548Z,11.19
2022-09-20T06:48:30.315Z,11.21
2022-09-20T06:50:58.889Z,11.26
2022-09-20T06:53:32.467Z,11.34
2022-09-20T06:56:01.634Z,11.38
2022-09-20T06:58:29.593Z,11.44
2022-09-20T07:00:57.426Z,11.40
2022-09-20T07:03:25.258Z,11.44
2022-09-20T07:05:53.444Z,11.43
2022-09-20T07:08:21.174Z,11.42
2022-09-20T07:10:50.899Z,11.30
2022-09-20T07:13:20.801Z,11.45
2022-09-20T07:15:48.672Z,11.46
2022-09-20T07:18:16.460Z,11.60
2022-09-20T07:20:44.662Z,11.69
2022-09-20T07:23:12.426Z,11.79
2022-09-20T07:25:40.212Z,11.80
2022-09-20T07:28:09.336Z,11.91
2022-09-20T07:30:37.137Z,12.02
2022-09-20T07:33:05.073Z,12.13
2022-09-20T07:35:32.812Z,12.20
2022-09-20T07:38:00.881Z,12.35
2022-09-20T07:40:28.674Z,12.48
2022-09-20T07:42:57.518Z,12.72
2022-09-20T07:45:26.929Z,12.69
2022-09-20T07:47:54.787Z,12.76
2022-09-20T07:50:22.644Z,12.66
2022-09-20T07:52:50.548Z,12.51
2022-09-20T07:55:18.342Z,12.40
2022-09-20T07:57:46.441Z,12.40
2022-09-20T08:00:14.553Z,12.45
2022-09-20T08:02:44.985Z,12.39
2022-09-20T08:05:12.940Z,12.34
2022-09-20T08:07:40.675Z,12.33
2022-09-20T08:10:09.479Z,12.45
2022-09-20T08:15:25.028Z,12.67
2022-09-20T08:17:54.182Z,12.81
2022-09-20T08:20:21.956Z,13.14
2022-09-20T08:23:06.282Z,13.31
2022-09-20T08:25:38.325Z,13.41
2022-09-20T08:28:06.086Z,13.61
2022-09-20T08:30:33.812Z,13.73
2022-09-20T08:33:04.861Z,13.84
2022-09-20T08:35:32.722Z,13.69
2022-09-20T08:39:57.294Z,13.79
2022-09-20T08:40:49.433Z,13.79
2022-09-20T08:43:22.338Z,13.72
2022-09-20T08:45:50.842Z,13.76
2022-09-20T08:48:23.922Z,13.74
2022-09-20T08:50:51.779Z,13.63
2022-09-20T08:53:21.455Z,13.63
2022-09-20T08:55:49.659Z,13.70
2022-09-20T08:58:19.181Z,13.74
2022-09-20T09:00:47.989Z,13.88
2022-09-20T09:03:18.482Z,13.94
2022-09-20T09:05:50.342Z,14.01
2022-09-20T09:08:19.826Z,14.16
2022-09-20T09:10:54.598Z,14.25
2022-09-20T09:13:28.060Z,14.17
2022-09-20T09:15:59.752Z,14.07
2022-09-20T09:18:34.826Z,13.95
2022-09-20T09:21:05.327Z,13.86
2022-09-20T09:23:41.230Z,13.86
2022-09-20T09:26:17.436Z,14.00
2022-09-20T09:28:45.320Z,14.17
2022-09-20T09:31:15.960Z,14.18
2022-09-20T09:33:47.071Z,14.33
2022-09-20T09:36:19.044Z,14.26
2022-09-20T09:38:48.005Z,14.34
2022-09-20T09:41:30.406Z,14.50
2022-09-20T09:44:02.654Z,14.52
2022-09-20T09:46:33.964Z,14.58
2022-09-20T09:49:11.614Z,14.60
2022-09-20T09:51:46.106Z,14.69
2022-09-20T09:54:19.846Z,14.74
2022-09-20T09:57:02.043Z,14.76
2022-09-20T09:59:40.307Z,14.87
2022-09-20T10:02:28.968Z,14.88
2022-09-20T10:05:04.742Z,14.73
2022-09-20T10:07:43.998Z,14.67
2022-09-20T10:10:24.925Z,14.85
2022-09-20T10:13:05.941Z,15.05
2022-09-20T10:15:39.858Z,15.18
2022-09-20T10:18:24.124Z,15.10
2022-09-20T10:21:07.761Z,15.39
2022-09-20T10:24:04.228Z,15.47
2022-09-20T10:27:03.083Z,15.48
2022-09-20T10:29:43.350Z,15.43
2022-09-20T10:32:28.266Z,15.59
2022-09-20T10:35:15.094Z,15.62
2022-09-20T10:37:55.801Z,15.85
2022-09-20T10:40:47.946Z,16.03
2022-09-20T10:43:35.672Z,16.02
2022-09-20T10:46:31.323Z,15.90
2022-09-20T10:49:05.625Z,15.72
2022-09-20T10:51:48.003Z,15.60
2022-09-20T10:54:33.171Z,15.67
2022-09-20T10:57:21.043Z,15.51
2022-09-20T10:59:53.199Z,15.59
2022-09-20T11:02:42.884Z,15.63
2022-09-20T11:05:33.036Z,15.81
2022-09-20T11:08:08.952Z,15.83
2022-09-20T11:10:43.035Z,15.90
2022-09-20T11:13:23.423Z,16.08
2022-09-20T11:16:01.750Z,15.81
2022-09-20T11:18:40.437Z,15.60
2022-09-20T11:21:16.564Z,15.63
2022-09-20T11:23:53.919Z,15.58
2022-09-20T11:26:29.404Z,15.51
2022-09-20T11:29:04.440Z,15.40
2022-09-20T11:31:37.388Z,15.20
2022-09-20T11:34:13.491Z,15.04
2022-09-20T11:36:53.573Z,14.90
2022-09-20T11:39:27.645Z,14.92
2022-09-20T11:41:57.749Z,15.01
2022-09-20T11:44:27.491Z,15.05
2022-09-20T11:47:04.646Z,15.05
2022-09-20T11:49:53.852Z,15.21
2022-09-20T11:52:31.042Z,15.60
2022-09-20T11:55:17.367Z,15.74
2022-09-20T11:57:45.771Z,15.60
2022-09-20T12:00:17.683Z,15.41
2022-09-20T12:02:53.090Z,15.26
2022-09-20T12:05:28.651Z,15.19
2022-09-20T12:07:59.559Z,15.14
2022-09-20T12:10:30.617Z,15.13
2022-09-20T12:13:01.239Z,15.15
2022-09-20T12:15:33.019Z,15.24
2022-09-20T12:18:48.559Z,15.32
2022-09-20T12:21:18.880Z,15.39
2022-09-20T12:24:22.402Z,15.60
2022-09-20T12:26:56.935Z,15.93
2022-09-20T12:30:06.420Z,16.35
2022-09-20T12:32:43.536Z,16.52
2022-09-20T12:36:00.535Z,16.39
2022-09-20T12:38:32.545Z,16.23
2022-09-20T12:41:07.864Z,16.17
2022-09-20T12:43:38.716Z,16.12
2022-09-20T12:46:11.860Z,15.96
2022-09-20T12:48:41.504Z,15.86
2022-09-20T12:51:43.249Z,15.83
2022-09-20T12:54:14.202Z,15.68
2022-09-20T12:56:46.624Z,15.77
2022-09-20T12:59:23.218Z,15.94
2022-09-20T13:01:51.871Z,16.20
2022-09-20T13:04:55.412Z,16.33
2022-09-20T13:07:44.911Z,16.18
2022-09-20T13:10:33.554Z,16.10
2022-09-20T13:13:27.046Z,15.99
2022-09-20T13:15:56.411Z,15.88
2022-09-20T13:18:27.443Z,15.72
2022-09-20T13:21:02.836Z,15.66
2022-09-20T13:23:34.262Z,15.52
2022-09-20T13:26:05.122Z,15.34
2022-09-20T13:28:38.568Z,15.01
2022-09-20T13:31:31.301Z,14.89
2022-09-20T13:34:16.932Z,14.80
2022-09-20T13:36:47.644Z,14.76
2022-09-20T13:39:26.996Z,14.70
2022-09-20T13:41:54.900Z,14.63
2022-09-20T13:44:25.478Z,14.78
2022-09-20T13:46:53.276Z,14.77
2022-09-20T13:49:23.665Z,14.72
2022-09-20T13:51:53.150Z,14.96
2022-09-20T13:54:30.011Z,15.07
2022-09-20T13:57:02.552Z,15.25
2022-09-20T13:59:40.220Z,15.49
2022-09-20T14:02:22.259Z,15.63
2022-09-20T14:04:55.967Z,15.72
2022-09-20T14:07:34.002Z,15.62
2022-09-20T14:10:06.188Z,15.68
2022-09-20T14:12:35.766Z,15.84
2022-09-20T14:15:08.532Z,15.84
2022-09-20T14:17:37.285Z,15.86
2022-09-20T14:20:06.413Z,15.84
2022-09-20T14:22:35.892Z,15.85
2022-09-20T14:25:19.875Z,15.89
2022-09-20T14:27:47.965Z,15.85
2022-09-20T14:30:35.477Z,15.78
2022-09-20T14:33:06.469Z,15.56
2022-09-20T14:35:34.901Z,15.41
2022-09-20T14:38:10.242Z,15.34
2022-09-20T14:40:44.595Z,15.37
2022-09-20T14:43:25.494Z,15.36
2022-09-20T14:45:56.097Z,15.20
2022-09-20T14:48:36.860Z,15.22
2022-09-20T14:51:23.370Z,15.38
2022-09-20T14:53:53.969Z,15.55
2022-09-20T14:56:33.884Z,15.71
2022-09-20T14:59:21.320Z,15.85
2022-09-20T15:01:58.691Z,15.96
2022-09-20T15:04:28.685Z,16.05
2022-09-20T15:06:58.803Z,16.30
2022-09-20T15:09:28.227Z,16.40
2022-09-20T15:12:04.718Z,16.33
2022-09-20T15:14:37.437Z,16.32
2022-09-20T15:17:06.626Z,16.26
2022-09-20T15:19:34.543Z,16.21
2022-09-20T15:22:02.622Z,16.12
2022-09-20T15:24:31.941Z,15.89
2022-09-20T15:26:59.968Z,15.55
2022-09-20T15:29:28.190Z,15.68
2022-09-20T15:31:56.257Z,15.67
2022-09-20T15:34:24.418Z,15.45
2022-09-20T15:36:53.983Z,15.56
2022-09-20T15:39:34.881Z,15.43
2022-09-20T15:42:03.925Z,15.63
2022-09-20T15:44:32.585Z,15.78
2022-09-20T15:47:01.681Z,16.05
2022-09-20T15:49:31.092Z,16.26
2022-09-20T15:52:00.364Z,16.45
2022-09-20T15:54:29.248Z,16.68
2022-09-20T15:56:58.687Z,16.89
2022-09-20T15:59:28.470Z,17.06
2022-09-20T16:01:56.354Z,17.30
2022-09-20T16:04:27.181Z,17.11
2022-09-20T16:06:55.282Z,16.90
2022-09-20T16:09:23.357Z,16.99
2022-09-20T16:11:51.381Z,16.91
2022-09-20T16:14:23.044Z,16.72
2022-09-20T16:16:51.681Z,16.60
2022-09-20T16:19:20.488Z,16.34
2022-09-20T16:21:55.091Z,15.95
2022-09-20T16:24:25.586Z,15.66
2022-09-20T16:26:53.914Z,15.66
2022-09-20T16:29:25.044Z,15.56
2022-09-20T16:31:55.127Z,15.46
2022-09-20T16:34:26.267Z,15.31
2022-09-20T16:36:56.829Z,15.25
2022-09-20T16:39:26.219Z,15.46
2022-09-20T16:41:55.725Z,15.89
2022-09-20T16:44:25.564Z,16.30
2022-09-20T16:46:53.424Z,16.53
2022-09-20T16:49:21.295Z,16.57
2022-09-20T16:51:49.145Z,16.40
2022-09-20T16:54:18.265Z,16.11
2022-09-20T16:56:47.435Z,15.92
2022-09-20T16:59:17.952Z,15.73
2022-09-20T17:01:47.969Z,15.51
2022-09-20T17:04:18.256Z,15.25
2022-09-20T17:06:47.105Z,15.02
2022-09-20T17:09:16.658Z,14.88
2022-09-20T17:11:47.196Z,14.72
2022-09-20T17:14:17.210Z,14.56
2022-09-20T17:16:47.546Z,14.42
2022-09-20T17:19:18.813Z,14.36
2022-09-20T17:21:50.241Z,14.24
2022-09-20T17:24:19.995Z,14.20
2022-09-20T17:26:48.673Z,14.07
2022-09-20T17:29:18.322Z,14.01
2022-09-20T17:31:54.404Z,13.96
2022-09-20T17:34:26.258Z,13.89
2022-09-20T17:36:55.622Z,13.82
2022-09-20T17:39:23.815Z,13.75
2022-09-20T17:41:52.159Z,13.68
2022-09-20T17:44:20.532Z,13.62
2022-09-20T17:46:50.503Z,13.56
2022-09-20T17:49:20.428Z,13.49
2022-09-20T17:51:50.953Z,13.47
2022-09-20T17:54:20.281Z,13.41
2022-09-20T17:56:50.508Z,13.35
2022-09-20T17:59:20.234Z,13.28
2022-09-20T18:01:50.558Z,13.24
2022-09-20T18:04:20.994Z,13.20
2022-09-20T18:06:52.290Z,13.14
2022-09-20T18:09:22.602Z,13.08
2022-09-20T18:11:53.007Z,13.04
2022-09-20T18:14:23.739Z,13.00
2022-09-20T18:16:53.247Z,12.98
2022-09-20T18:19:22.744Z,12.94
2022-09-20T18:21:54.959Z,12.91
2022-09-20T18:24:22.763Z,12.87
2022-09-20T18:26:51.404Z,12.82
2022-09-20T18:29:19.611Z,12.82
2022-09-20T18:31:49.782Z,12.76
2022-09-20T18:34:19.216Z,12.73
2022-09-20T18:36:52.479Z,12.73
2022-09-20T18:39:23.198Z,12.68
2022-09-20T18:41:52.928Z,12.64
2022-09-20T18:44:21.946Z,12.60
2022-09-20T18:46:50.717Z,12.55
2022-09-20T18:49:20.593Z,12.48
2022-09-20T18:51:50.086Z,12.47
2022-09-20T18:54:19.023Z,12.46
2022-09-20T18:56:50.399Z,12.43
2022-09-20T18:59:20.534Z,12.39
2022-09-20T19:02:11.724Z,12.35
2022-09-20T19:05:01.172Z,12.32
2022-09-20T19:07:39.129Z,12.27
2022-09-20T19:10:14.599Z,12.24
2022-09-20T19:12:51.122Z,12.19
2022-09-20T19:15:41.192Z,12.11
2022-09-20T19:18:27.075Z,12.02
2022-09-20T19:20:59.547Z,12.01
2022-09-20T19:23:42.912Z,11.96
2022-09-20T19:26:20.718Z,11.91
2022-09-20T19:28:51.237Z,11.89
2022-09-20T19:31:24.443Z,11.85
2022-09-20T19:33:55.045Z,11.84
2022-09-20T19:36:23.781Z,11.79
2022-09-20T19:39:03.835Z,11.77
2022-09-20T19:41:47.263Z,11.73
2022-09-20T19:44:33.752Z,11.70
2022-09-20T19:47:17.573Z,11.64
2022-09-20T19:49:54.555Z,11.63
2022-09-20T19:52:23.758Z,11.59
2022-09-20T19:54:52.647Z,11.58
2022-09-20T19:57:22.672Z,11.58
2022-09-20T19:59:55.874Z,11.53
2022-09-20T20:02:24.439Z,11.48
2022-09-20T20:04:52.844Z,11.46
2022-09-20T20:07:28.656Z,11.44
2022-09-20T20:10:11.367Z,11.39
2022-09-20T20:12:49.494Z,11.37
2022-09-20T20:15:30.981Z,11.33
2022-09-20T20:18:03.540Z,11.29
2022-09-20T20:20:39.237Z,11.25
2022-09-20T20:23:21.532Z,11.22
2022-09-20T20:26:00.231Z,11.16
2022-09-20T20:28:28.163Z,11.12
2022-09-20T20:31:00.122Z,11.12
2022-09-20T20:33:28.150Z,11.08
2022-09-20T20:35:56.877Z,11.04
2022-09-20T20:38:26.424Z,11.02
2022-09-20T20:41:03.926Z,11.00
2022-09-20T20:43:32.250Z,10.98
2022-09-20T20:46:01.507Z,10.95
2022-09-20T20:48:29.882Z,10.91
2022-09-20T20:51:05.441Z,10.90
2022-09-20T20:53:34.928Z,10.85
2022-09-20T20:56:05.781Z,10.83
2022-09-20T20:58:34.385Z,10.78
2022-09-20T21:01:08.999Z,10.76
2022-09-20T21:03:37.375Z,10.75
2022-09-20T21:06:05.556Z,10.74
2022-09-20T21:08:35.488Z,10.71
2022-09-20T21:11:07.416Z,10.69
2022-09-20T21:13:35.710Z,10.66
2022-09-20T21:16:10.086Z,10.65
2022-09-20T21:18:39.616Z,10.60
2022-09-20T21:21:15.943Z,10.57
2022-09-20T21:23:45.764Z,10.58
2022-09-20T21:26:15.497Z,10.60
2022-09-20T21:28:45.714Z,10.59
2022-09-20T21:31:14.919Z,10.57
2022-09-20T21:33:43.973Z,10.57
2022-09-20T21:36:13.806Z,10.54
2022-09-20T21:38:42.354Z,10.51
2022-09-20T21:41:11.766Z,10.48
2022-09-20T21:43:41.807Z,10.43
2022-09-20T21:46:15.573Z,10.39
2022-09-20T21:48:43.406Z,10.39
2022-09-20T21:51:12.947Z,10.33
2022-09-20T21:53:41.085Z,10.28
2022-09-20T21:56:10.855Z,10.28
2022-09-20T21:58:39.896Z,10.24
2022-09-20T22:01:11.489Z,10.25
2022-09-20T22:03:42.130Z,10.25
2022-09-20T22:06:14.718Z,10.21
2022-09-20T22:08:46.451Z,10.20
2022-09-20T22:11:16.071Z,10.17
2022-09-20T22:13:44.999Z,10.16
2022-09-20T22:16:14.645Z,10.14
2022-09-20T22:18:45.385Z,10.11
2022-09-20T22:21:14.955Z,10.06
2022-09-20T22:23:43.708Z,10.02
2022-09-20T22:26:13.693Z,10.03
2022-09-20T22:28:42.487Z,9.99
2022-09-20T22:31:12.577Z,9.98
2022-09-20T22:33:45.151Z,9.96
2022-09-20T22:36:16.160Z,9.97
2022-09-20T22:38:45.266Z,9.93
2022-09-20T22:41:14.109Z,9.92
2022-09-20T22:43:41.862Z,9.89
2022-09-20T22:46:11.365Z,9.84
2022-09-20T22:48:40.086Z,9.86
2022-09-20T22:51:13.075Z,9.82
2022-09-20T22:53:41.188Z,9.83
2022-09-20T22:56:11.459Z,9.80
2022-09-20T22:58:40.803Z,9.78
2022-09-20T23:01:10.878Z,9.78
2022-09-20T23:03:39.413Z,9.77
2022-09-20T23:06:15.071Z,9.74
2022-09-20T23:08:43.385Z,9.69
2022-09-20T23:11:11.235Z,9.66
2022-09-20T23:13:39.340Z,9.66
2022-09-20T23:16:14.940Z,9.65
2022-09-20T23:18:43.381Z,9.63
2022-09-20T23:21:11.330Z,9.62
2022-09-20T23:23:42.057Z,9.65
2022-09-20T23:26:11.570Z,9.65
2022-09-20T23:28:42.165Z,9.63
2022-09-20T23:31:11.926Z,9.57
2022-09-20T23:33:44.724Z,9.56
2022-09-20T23:36:14.720Z,9.57
2022-09-20T23:38:44.400Z,9.52
2022-09-20T23:41:14.507Z,9.51
2022-09-20T23:43:43.362Z,9.48
2022-09-20T23:46:12.835Z,9.45
2022-09-20T23:48:41.445Z,9.48
2022-09-20T23:51:11.204Z,9.44
2022-09-20T23:53:39.239Z,9.44
2022-09-20T23:56:09.559Z,9.43
2022-09-20T23:58:38.682Z,9.45
